Flight Track Log - Related Links

Times and Time Zones

All times are in EDT time to prevent confusion due to time zone crossing. See the N143DE flight status page for this flight to view local times or setup timezone preferences in your user account.

Time Position Orientation Groundspeed Altitude Reporting Facility
EDT Latitude Longitude Course Direction KTS MPH feet Rate Location/Type
Thu 12:51:31 PM 32.7003 -80.2389 270° West 153 176 6,700  Level Jacksonville Center
Thu 12:52:30 PM 32.7014 -80.2906 271° West 153 176 8,900 1,815 Climbing Jacksonville Center
Thu 12:53:30 PM 32.6964 -80.3525 265° West 165 190 10,300 1,700 Climbing Jacksonville Center
Thu 12:54:30 PM 32.6953 -80.4067 269° West 172 198 12,300 1,800 Climbing Jacksonville Center
Thu 12:55:30 PM 32.6944 -80.4661 269° West 183 211 13,900 850 Climbing Jacksonville Center
Thu 12:56:30 PM 32.6894 -80.5403 265° West 201 231 14,000 300 Climbing Jacksonville Center
Thu 12:57:30 PM 32.6847 -80.6219 266° West 230 265 14,500 1,587 Climbing Jacksonville Center
Thu 12:58:31 PM 32.6836 -80.6736 269° West 214 246 17,200 2,050 Climbing Jacksonville Center
Thu 12:59:30 PM 32.6803 -80.7281 266° West 184 212 18,600 1,462 Climbing Jacksonville Center
Thu 01:00:30 PM 32.6769 -80.7800 266° West 159 183 20,100 1,388 Climbing Jacksonville Center
Thu 01:01:31 PM 32.6736 -80.8294 265° West 159 183 21,400 950 Climbing Jacksonville Center
Thu 01:02:30 PM 32.6725 -80.8861 269° West 164 189 22,000 353 Climbing Jacksonville Center
Thu 01:03:30 PM 32.6675 -80.9578 265° West 208 239 22,100 50 Climbing Jacksonville Center
Thu 01:04:30 PM 32.6622 -81.0369 265° West 245 282 22,100 -50 Level Jacksonville Center
Thu 01:05:31 PM 32.6614 -81.1183 269° West 245 282 22,000  Descending Jacksonville Center
Thu 01:06:30 PM 32.6564 -81.2000 266° West 250 288 22,100  Climbing Jacksonville Center
Thu 01:07:30 PM 32.6550 -81.2714 269° West 250 288 22,000 -50 Descending Jacksonville Center
Thu 01:08:31 PM 32.6458 -81.3606 263° West 255 293 22,000  Level Jacksonville Center
Thu 01:09:31 PM 32.6467 -81.4344 271° West 255 293 22,000  Level Jacksonville Center
Thu 01:10:30 PM 32.6392 -81.5233 264° West 255 293 22,000  Level Jacksonville Center
Thu 01:11:31 PM 32.6361 -81.6050 267° West 255 293 22,000  Level Jacksonville Center
Thu 01:13:09 PM 32.6289 -81.7328 266° West 247 284 22,000  Level Atlanta Center
Thu 01:14:09 PM 32.6178 -81.8169 261° West 247 284 22,000  Level Atlanta Center
Thu 01:15:09 PM 32.5942 -81.8914 249° West 252 290 22,000  Level Atlanta Center
Thu 01:16:09 PM 32.5703 -81.9683 250° West 252 290 22,000  Level Atlanta Center
Thu 01:17:09 PM 32.5444 -82.0478 249° West 252 290 22,000  Level Atlanta Center
Thu 01:18:09 PM 32.5208 -82.1272 251° West 252 290 22,000  Level Atlanta Center
Thu 01:19:09 PM 32.4989 -82.2042 251° West 252 290 22,000  Level Atlanta Center
Thu 01:20:09 PM 32.5022 -82.2828 273° West 236 272 22,000  Level Atlanta Center
Thu 01:21:09 PM 32.5094 -82.3639 276° West 236 272 22,000  Level Atlanta Center
Thu 01:22:09 PM 32.5189 -82.4425 278° West 242 278 22,000  Level Atlanta Center
Thu 01:23:09 PM 32.5283 -82.5236 278° West 247 284 22,000  Level Atlanta Center
Thu 01:24:09 PM 32.5356 -82.6050 276° West 247 284 22,000  Level Atlanta Center
Thu 01:25:09 PM 32.5469 -82.6836 280° West 252 290 22,000 50 Level Atlanta Center
Thu 01:26:09 PM 32.5519 -82.7672 274° West 252 290 22,100 -650 Climbing Atlanta Center
Thu 01:27:09 PM 32.5758 -82.8458 290° West 252 290 20,700 -1,400 Descending Atlanta Center
Thu 01:28:09 PM 32.6328 -82.9067 318° Northwest 262 302 19,300 -1,350 Descending Atlanta Center
Thu 01:29:09 PM 32.6936 -82.9603 323° Northwest 272 313 18,000 -1,250 Descending Atlanta Center
Thu 01:30:09 PM 32.7528 -83.0236 318° Northwest 282 325 16,800 -1,200 Descending Atlanta Center
Thu 01:31:09 PM 32.8200 -83.0897 320° Northwest 282 325 15,600 -1,200 Descending Atlanta Center
Thu 01:32:09 PM 32.8767 -83.1483 319° Northwest 282 325 14,400 -1,150 Descending Atlanta Center
Thu 01:33:09 PM 32.9356 -83.2047 321° Northwest 282 325 13,300 -1,050 Descending Atlanta Center
Thu 01:34:09 PM 32.9881 -83.2636 317° Northwest 282 325 12,300 -900 Descending Atlanta Center
Thu 01:35:09 PM 33.0469 -83.3203 321° Northwest 282 325 11,500 -750 Descending Atlanta Center
Thu 01:36:09 PM 33.0994 -83.3717 321° Northwest 266 306 10,800 -650 Descending Atlanta Center
Thu 01:37:09 PM 33.1561 -83.4283 320° Northwest 261 300 10,200 -659 Descending Atlanta Center
Thu 01:38:53 PM 33.2500 -83.5333 317° Northwest 261 300 9,000 -671 Descending Atlanta TRACON
Thu 01:39:59 PM 33.3167 -83.6000 320° Northwest 262 302 8,300 -476 Descending Atlanta TRACON
Thu 01:40:59 PM 33.3667 -83.6500 320° Northwest 253 291 8,000 -150 Descending Atlanta TRACON
Thu 01:41:59 PM 33.4333 -83.7000 328° Northwest 251 289 8,000 -300 Level Atlanta TRACON
Thu 01:42:59 PM 33.5000 -83.7167 348° North 254 292 7,400 -700 Descending Atlanta TRACON
Thu 01:43:59 PM 33.5667 -83.7500 337° Northwest 252 290 6,600 -650 Descending Atlanta TRACON
Thu 01:44:59 PM 33.6333 -83.7833 337° Northwest 246 283 6,100 -316 Descending Atlanta TRACON
Thu 01:45:53 PM 33.6833 -83.8000 344° North 242 278 6,000 -50 Descending Atlanta TRACON
Thu 01:46:59 PM 33.7500 -83.8333 337° Northwest 233 268 6,000  Level Atlanta TRACON
Thu 01:47:59 PM 33.8167 -83.8667 337° Northwest 230 265 6,000  Level Atlanta TRACON
Thu 01:49:00 PM 33.8667 -83.8833 345° North 232 267 6,000  Level Atlanta TRACON
Thu 01:49:59 PM 33.9333 -83.9333 328° Northwest 242 278 6,000  Level Atlanta TRACON
Thu 01:50:53 PM 33.9667 -83.9833 309° West 234 269 6,000  Level Atlanta TRACON
Thu 01:51:53 PM 34.0167 -84.0333 320° Northwest 237 273 6,000 -50 Level Atlanta TRACON
Thu 01:52:54 PM 34.0333 -84.1167 284° West 237 273 5,900  Descending Atlanta TRACON
Thu 01:53:54 PM 34.0167 -84.1833 253° West 217 250 6,000 50 Climbing Atlanta TRACON
Thu 01:54:54 PM 34.0167 -84.2500 270° West 213 245 6,000 -150 Level Atlanta TRACON
Thu 01:55:54 PM 34.0333 -84.3333 284° West 212 244 5,700 -950 Descending Atlanta TRACON
Thu 01:56:54 PM 34.0167 -84.4000 253° West 219 252 4,100 -1,250 Descending Atlanta TRACON
Thu 01:57:54 PM 34.0167 -84.4667 270° West 182 209 3,200 -1,000 Descending Atlanta TRACON
Thu 01:58:48 PM 34.0167 -84.5167 270° West 149 171 2,200 -842 Descending Atlanta TRACON
Thu 01:59:48 PM 34.0167 -84.5500 270° West 130 150 1,600 -600 Descending Atlanta TRACON
Thu 02:01:00 PM 34.0000 -84.5833 270° West  Level FlightAware Approximate
Thu 02:08:00 PM 34.0132 -84.5971 270° West  Level Estimated
Thu 02:09:00 PM 34.0132 -84.5971 270° West  Level Estimated

Login

Don't have an account? Register now (free) for customized features, flight alerts, and more!